Weather History for KFXY - March, 2013

Change the Weather History Date:

Sunday, March 31, 2013

  Actual Average Record
Temperature  
Mean Temperature 32 °F -  
Max Temperature 37 °F 51 °F 68 °F (2015)
Min Temperature 26 °F 29 °F 26 °F (2013)
Degree Days  
Heating Degree Days 34    
Moisture  
Dew Point 27 °F    
Average Humidity 79    
Maximum Humidity 100    
Minimum Humidity 48    
Precipitation  
Precipitation 0.00 in - - ()
Sea Level Pressure  
Sea Level Pressure 29.92 in    
Wind  
Wind Speed 12 mph (NW)    
Max Wind Speed 28 mph    
Max Gust Speed 43 mph    
Visibility 7 miles    
Events Fog    
Averages and records for this station are not official NWS values.
T = Trace of Precipitation, MM = Missing Value Source: NWS Daily Summary

Daily Weather History Graph

Daily Weather History Graph

Search for Another Location

Airport or City:

Trip Planner

Search our weather history database for the weather conditions in past years. The results will help you decide how hot, cold, wet, or windy it might be!

Date:

Astronomy

Mar. 31, 2013 Rise Set
Actual Time 6:57 AM CDT 7:40 PM CDT
Civil Twilight 6:28 AM CDT 8:08 PM CDT
Nautical Twilight 5:54 AM CDT 8:43 PM CDT
Astronomical Twilight 5:19 AM CDT 9:18 PM CDT
Moon No Moon Rise 9:39 AM CDT (3/31)
Length of Visible Light 13h 39m
Length of Day
12h 42m
Waning Gibbous, 77% of the Moon is Illuminated
Mar 31
Waning Gibbous
Apr 2
Last Quarter
Apr 10
New
Apr 18
First Quarter
Apr 25
Full

Hourly Weather History & Observations

Time (CDT) Temp. Windchill Dew Point Humidity Pressure Visibility Wind Dir Wind Speed Gust Speed Precip Events Conditions
12:15 AM 37.4 °F 32.1 °F 35.6 °F 93% 29.88 in 3.0 mi NNW 6.9 mph - N/A   Overcast
12:35 AM 35.6 °F 29.2 °F 35.6 °F 100% 29.88 in 2.0 mi NW 8.1 mph - N/A   Overcast
12:55 AM 35.6 °F - 35.6 °F 100% 29.88 in 1.0 mi Calm Calm - N/A   Overcast
1:15 AM 35.6 °F 31.7 °F 33.8 °F 93% 29.88 in 2.5 mi WNW 4.6 mph - N/A   Overcast
1:35 AM 33.8 °F 29.6 °F 33.8 °F 100% 29.88 in 3.0 mi NW 4.6 mph - N/A   Overcast
1:55 AM 33.8 °F 28.6 °F 32.0 °F 93% 29.89 in 3.0 mi WNW 5.8 mph - N/A   Scattered Clouds
2:15 AM 33.8 °F 27.7 °F 32.0 °F 93% 29.88 in 4.0 mi NW 6.9 mph - N/A   Clear
2:35 AM 32.0 °F 27.5 °F 32.0 °F 100% 29.88 in 3.0 mi NW 4.6 mph - N/A   Clear
2:55 AM 32.0 °F - 32.0 °F 100% 29.87 in 3.0 mi Calm Calm - N/A   Clear
3:15 AM 32.0 °F 26.4 °F 32.0 °F 100% 29.88 in 3.0 mi NW 5.8 mph - N/A   Clear
3:35 AM 32.0 °F 24.2 °F 32.0 °F 100% 29.88 in 2.5 mi NW 9.2 mph - N/A   Mostly Cloudy
3:55 AM 32.0 °F 23.0 °F 30.2 °F 93% 29.88 in 0.2 mi WNW 11.5 mph - N/A Fog Fog
4:15 AM 32.0 °F 24.2 °F 32.0 °F 100% 29.87 in 0.2 mi WNW 9.2 mph - N/A Fog Fog
4:35 AM 32.0 °F 24.2 °F 32.0 °F 100% 29.87 in 0.2 mi WNW 9.2 mph - N/A Fog Fog
4:55 AM 32.0 °F 26.4 °F 32.0 °F 100% 29.86 in 0.2 mi WNW 5.8 mph - N/A Fog Fog
5:15 AM 32.0 °F 25.6 °F 32.0 °F 100% 29.85 in 0.2 mi WNW 6.9 mph - N/A Fog Fog
5:35 AM 32.0 °F 24.8 °F 32.0 °F 100% 29.86 in 0.2 mi West 8.1 mph - N/A Fog Fog
5:55 AM 32.0 °F 25.6 °F 32.0 °F 100% 29.86 in 0.5 mi West 6.9 mph - N/A Fog Fog
6:15 AM 32.0 °F 23.6 °F 32.0 °F 100% 29.85 in 1.0 mi WNW 10.4 mph - N/A   Overcast
6:35 AM 32.0 °F 23.6 °F 32.0 °F 100% 29.86 in 1.5 mi WNW 10.4 mph - N/A   Overcast
6:55 AM 32.0 °F 24.2 °F 32.0 °F 100% 29.86 in 1.5 mi WNW 9.2 mph - N/A   Overcast
7:15 AM 32.0 °F 24.2 °F 32.0 °F 100% 29.86 in 1.2 mi WNW 9.2 mph - N/A   Overcast
7:35 AM 32.0 °F 25.6 °F 32.0 °F 100% 29.86 in 1.5 mi West 6.9 mph - N/A   Mostly Cloudy
7:55 AM 32.0 °F 27.5 °F 32.0 °F 100% 29.86 in 2.0 mi West 4.6 mph - N/A   Clear
8:15 AM 33.8 °F 27.7 °F 32.0 °F 93% 29.86 in 4.0 mi West 6.9 mph - N/A   Scattered Clouds
8:35 AM 33.8 °F 27.0 °F 32.0 °F 93% 29.86 in 5.0 mi West 8.1 mph - N/A   Scattered Clouds
8:55 AM 35.6 °F 28.0 °F 32.0 °F 87% 29.86 in 7.0 mi WNW 10.4 mph 17.3 mph N/A   Clear
9:15 AM 35.6 °F 26.6 °F 32.0 °F 87% 29.85 in 10.0 mi WNW 13.8 mph 19.6 mph N/A   Scattered Clouds
9:35 AM 35.6 °F 24.8 °F 32.0 °F 87% 29.85 in 10.0 mi NW 19.6 mph 25.3 mph N/A   Scattered Clouds
9:55 AM 37.4 °F 28.5 °F 32.0 °F 81% 29.86 in 10.0 mi NW 15.0 mph 21.9 mph N/A   Mostly Cloudy
10:15 AM 37.4 °F 25.9 °F 32.0 °F 81% 29.86 in 10.0 mi WNW 25.3 mph 31.1 mph N/A   Mostly Cloudy
10:35 AM 37.4 °F 25.9 °F 32.0 °F 81% 29.87 in 10.0 mi WNW 25.3 mph 29.9 mph N/A   Mostly Cloudy
10:55 AM 35.6 °F 23.0 °F 30.2 °F 81% 29.88 in 10.0 mi NW 27.6 mph 34.5 mph N/A   Mostly Cloudy
11:15 AM 35.6 °F 23.4 °F 28.4 °F 75% 29.89 in 10.0 mi NW 25.3 mph 32.2 mph N/A   Overcast
11:35 AM 35.6 °F 23.7 °F 28.4 °F 75% 29.90 in 10.0 mi NW 24.2 mph 29.9 mph N/A   Overcast
11:55 AM 35.6 °F 25.5 °F 28.4 °F 75% 29.91 in 10.0 mi NW 17.3 mph 29.9 mph N/A   Overcast
12:15 PM 35.6 °F 24.2 °F 28.4 °F 75% 29.91 in 10.0 mi WNW 21.9 mph 28.8 mph N/A   Overcast
12:35 PM 35.6 °F 24.2 °F 28.4 °F 75% 29.91 in 10.0 mi NW 21.9 mph 29.9 mph N/A   Overcast
12:55 PM 35.6 °F 24.5 °F 28.4 °F 75% 29.90 in 10.0 mi NW 20.7 mph 26.5 mph N/A   Overcast
1:15 PM 37.4 °F 26.9 °F 26.6 °F 65% 29.90 in 10.0 mi NW 20.7 mph 32.2 mph N/A   Mostly Cloudy
1:35 PM 37.4 °F 26.6 °F 26.6 °F 65% 29.90 in 10.0 mi NW 21.9 mph 32.2 mph N/A   Overcast
1:55 PM 37.4 °F 27.5 °F 26.6 °F 65% 29.91 in 10.0 mi NW 18.4 mph 32.2 mph N/A   Mostly Cloudy
2:15 PM 37.4 °F 26.1 °F 26.6 °F 65% 29.91 in 10.0 mi NW 24.2 mph 34.5 mph N/A   Mostly Cloudy
2:35 PM 37.4 °F 25.6 °F 23.0 °F 56% 29.91 in 10.0 mi NW 26.5 mph 42.6 mph N/A   Mostly Cloudy
2:55 PM 37.4 °F 26.1 °F 23.0 °F 56% 29.91 in 10.0 mi NW 24.2 mph 32.2 mph N/A   Scattered Clouds
3:15 PM 37.4 °F 25.4 °F 24.8 °F 60% 29.91 in 10.0 mi NNW 27.6 mph 33.4 mph N/A   Scattered Clouds
3:35 PM 35.6 °F 23.4 °F 21.2 °F 56% 29.91 in 10.0 mi NW 25.3 mph 34.5 mph N/A   Scattered Clouds
3:55 PM 37.4 °F 26.1 °F 23.0 °F 56% 29.92 in 10.0 mi NNW 24.2 mph 34.5 mph N/A   Mostly Cloudy
4:15 PM 37.4 °F 27.2 °F 23.0 °F 56% 29.92 in 10.0 mi NW 19.6 mph 26.5 mph N/A   Scattered Clouds
4:35 PM 37.4 °F 26.9 °F 19.4 °F 48% 29.93 in 10.0 mi NW 20.7 mph 27.6 mph N/A   Scattered Clouds
4:55 PM 35.6 °F 23.2 °F 19.4 °F 52% 29.93 in 10.0 mi NNW 26.5 mph 33.4 mph N/A   Clear
5:15 PM 35.6 °F 24.5 °F 21.2 °F 56% 29.93 in 10.0 mi NW 20.7 mph 31.1 mph N/A   Clear
5:35 PM 35.6 °F 24.8 °F 19.4 °F 52% 29.94 in 10.0 mi NW 19.6 mph 27.6 mph N/A   Scattered Clouds
5:55 PM 33.8 °F 22.2 °F 19.4 °F 56% 29.95 in 10.0 mi NW 20.7 mph 27.6 mph N/A   Clear
6:15 PM 33.8 °F 21.9 °F 19.4 °F 56% 29.96 in 10.0 mi NW 21.9 mph 29.9 mph N/A   Scattered Clouds
6:35 PM 32.0 °F 21.6 °F 19.4 °F 60% 29.97 in 10.0 mi NNW 15.0 mph 24.2 mph N/A   Scattered Clouds
6:55 PM 32.0 °F 20.8 °F 19.4 °F 60% 29.97 in 10.0 mi NW 17.3 mph 27.6 mph N/A   Scattered Clouds
7:15 PM 32.0 °F 20.5 °F 19.4 °F 60% 29.98 in 10.0 mi NNW 18.4 mph 24.2 mph N/A   Mostly Cloudy
7:35 PM 32.0 °F 20.5 °F 19.4 °F 60% 29.98 in 10.0 mi NW 18.4 mph 21.9 mph N/A   Mostly Cloudy
7:55 PM 32.0 °F 20.8 °F 21.2 °F 64% 29.99 in 10.0 mi NW 17.3 mph 21.9 mph N/A   Scattered Clouds
8:15 PM 30.2 °F 20.2 °F 21.2 °F 69% 29.99 in 10.0 mi NW 12.7 mph 24.2 mph N/A   Scattered Clouds
8:35 PM 30.2 °F 17.8 °F 21.2 °F 69% 30.01 in 10.0 mi NNW 19.6 mph 23.0 mph N/A   Scattered Clouds
9:15 PM 30.2 °F 17.4 °F 19.4 °F 64% 30.03 in 10.0 mi NW 20.7 mph 25.3 mph N/A   Clear
9:35 PM 28.4 °F 16.2 °F 19.4 °F 69% 30.04 in 10.0 mi NW 17.3 mph 23.0 mph N/A   Scattered Clouds
9:55 PM 28.4 °F 15.1 °F 19.4 °F 69% 30.05 in 10.0 mi NNW 20.7 mph 29.9 mph N/A   Scattered Clouds
10:15 PM 28.4 °F 16.2 °F 19.4 °F 69% 30.06 in 10.0 mi NW 17.3 mph 24.2 mph N/A   Scattered Clouds
10:35 PM 28.4 °F 16.6 °F 19.4 °F 69% 30.06 in 10.0 mi NW 16.1 mph 24.2 mph N/A   Scattered Clouds
11:15 PM 26.6 °F 14.3 °F 17.6 °F 69% 30.08 in 10.0 mi NNW 16.1 mph 19.6 mph N/A   Scattered Clouds
11:35 PM 26.6 °F 13.4 °F 17.6 °F 69% 30.08 in 10.0 mi NNW 18.4 mph 26.5 mph N/A   Scattered Clouds
11:55 PM 26.6 °F 12.0 °F 17.6 °F 69% 30.09 in 10.0 mi NNW 23.0 mph - N/A   Mostly Cloudy